createdAt,value
2018-01-14T00:01:07.139Z,77.97
2018-01-14T00:03:34.835Z,78.31
2018-01-14T00:06:04.393Z,78.53
2018-01-14T00:08:35.238Z,79.66
2018-01-14T00:11:05.814Z,78.12
2018-01-14T00:13:33.990Z,78.28
2018-01-14T00:16:02.971Z,78.58
2018-01-14T00:18:33.228Z,79.12
2018-01-14T00:21:04.711Z,78.00
2018-01-14T00:23:33.956Z,77.34
2018-01-14T00:26:02.704Z,77.64
2018-01-14T00:28:31.080Z,78.30
2018-01-14T00:33:32.207Z,76.72
2018-01-14T00:36:03.129Z,76.22
2018-01-14T00:38:31.543Z,76.89
2018-01-14T00:41:03.348Z,76.46
2018-01-14T00:43:33.218Z,75.76
2018-01-14T00:46:02.196Z,75.95
2018-01-14T00:48:31.328Z,76.20
2018-01-14T00:50:59.620Z,76.66
2018-01-14T00:53:29.651Z,75.91
2018-01-14T00:56:02.386Z,75.80
2018-01-14T00:58:34.278Z,75.13
2018-01-14T01:01:03.239Z,75.33
2018-01-14T01:03:30.881Z,75.24
2018-01-14T01:06:00.263Z,75.92
2018-01-14T01:08:28.272Z,75.19
2018-01-14T01:10:59.592Z,75.22
2018-01-14T01:13:28.694Z,75.44
2018-01-14T01:15:57.448Z,76.23
2018-01-14T01:18:25.652Z,75.21
2018-01-14T01:20:54.825Z,75.08
2018-01-14T01:23:23.427Z,74.22
2018-01-14T01:25:52.912Z,75.93
2018-01-14T01:28:21.032Z,75.47
2018-01-14T01:30:51.855Z,75.46
2018-01-14T01:33:23.557Z,75.44
2018-01-14T01:35:51.647Z,75.41
2018-01-14T01:38:21.055Z,75.39
2018-01-14T01:40:49.832Z,75.78
2018-01-14T01:43:19.323Z,74.92
2018-01-14T01:45:47.225Z,74.10
2018-01-14T01:48:17.447Z,74.72
2018-01-14T01:50:48.106Z,74.64
2018-01-14T01:53:17.619Z,75.16
2018-01-14T01:55:46.485Z,75.57
2018-01-14T01:58:16.530Z,75.21
2018-01-14T02:00:45.219Z,75.83
2018-01-14T02:03:14.058Z,75.78
2018-01-14T02:05:44.234Z,74.69
2018-01-14T02:08:13.420Z,75.23
2018-01-14T02:10:41.701Z,74.05
2018-01-14T02:13:10.394Z,75.06
2018-01-14T02:15:39.300Z,74.82
2018-01-14T02:18:08.245Z,74.82
2018-01-14T02:20:38.103Z,74.12
2018-01-14T02:23:07.565Z,74.67
2018-01-14T02:25:36.592Z,75.16
2018-01-14T02:28:06.786Z,74.93
2018-01-14T02:30:34.890Z,75.21
2018-01-14T02:33:06.065Z,75.13
2018-01-14T02:35:34.125Z,75.28
2018-01-14T02:38:07.237Z,75.12
2018-01-14T02:40:35.325Z,75.94
2018-01-14T02:43:06.536Z,74.78
2018-01-14T02:45:36.355Z,74.67
2018-01-14T02:48:05.168Z,73.98
2018-01-14T02:50:36.051Z,73.89
2018-01-14T02:53:05.078Z,74.62
2018-01-14T02:55:34.217Z,75.16
2018-01-14T02:58:03.126Z,74.62
2018-01-14T03:00:31.659Z,73.97
2018-01-14T03:03:01.095Z,74.76
2018-01-14T03:05:29.870Z,74.67
2018-01-14T03:07:59.289Z,74.90
2018-01-14T03:10:26.990Z,75.44
2018-01-14T03:12:57.224Z,74.67
2018-01-14T03:15:24.960Z,75.26
2018-01-14T03:17:55.596Z,74.82
2018-01-14T03:20:24.879Z,75.35
2018-01-14T03:22:53.511Z,75.18
2018-01-14T03:25:21.436Z,74.23
2018-01-14T03:27:49.697Z,74.60
2018-01-14T03:30:18.407Z,74.48
2018-01-14T03:32:46.451Z,74.74
2018-01-14T03:35:14.243Z,75.57
2018-01-14T03:37:42.120Z,74.37
2018-01-14T03:40:10.780Z,74.42
2018-01-14T03:42:38.620Z,74.31
2018-01-14T03:45:06.816Z,74.27
2018-01-14T03:47:35.219Z,75.42
2018-01-14T03:50:04.015Z,75.16
2018-01-14T03:52:32.464Z,74.93
2018-01-14T03:55:00.631Z,74.07
2018-01-14T03:57:28.459Z,75.10
2018-01-14T03:59:56.908Z,75.83
2018-01-14T04:02:28.681Z,74.70
2018-01-14T04:04:56.361Z,76.35
2018-01-14T04:07:29.388Z,75.44
2018-01-14T04:09:57.541Z,74.51
2018-01-14T04:12:26.263Z,75.89
2018-01-14T04:14:56.614Z,75.92
2018-01-14T04:17:25.806Z,76.73
2018-01-14T04:19:58.187Z,76.78
2018-01-14T04:22:27.843Z,77.66
2018-01-14T04:24:55.995Z,76.80
2018-01-14T04:27:24.759Z,77.27
2018-01-14T04:29:55.174Z,77.01
2018-01-14T04:32:24.605Z,77.47
2018-01-14T04:34:52.295Z,77.80
2018-01-14T04:37:22.039Z,77.63
2018-01-14T04:39:50.695Z,77.60
2018-01-14T04:42:21.179Z,79.24
2018-01-14T04:44:49.200Z,77.83
2018-01-14T04:47:19.026Z,79.06
2018-01-14T04:49:50.640Z,78.49
2018-01-14T04:52:18.415Z,79.68
2018-01-14T04:54:46.925Z,79.42
2018-01-14T04:57:15.011Z,79.98
2018-01-14T04:59:43.731Z,80.77
2018-01-14T05:02:14.488Z,81.13
2018-01-14T05:04:45.552Z,80.71
2018-01-14T05:07:16.382Z,80.83
2018-01-14T05:09:46.763Z,81.38
2018-01-14T05:12:14.542Z,81.50
2018-01-14T05:14:43.421Z,81.23
2018-01-14T05:17:11.478Z,81.54
2018-01-14T05:19:40.184Z,81.70
2018-01-14T05:22:09.354Z,81.66
2018-01-14T05:24:39.378Z,81.40
2018-01-14T05:27:09.257Z,81.90
2018-01-14T05:29:39.325Z,81.17
2018-01-14T05:32:07.160Z,82.38
2018-01-14T05:34:36.755Z,81.54
2018-01-14T05:37:04.609Z,81.77
2018-01-14T05:39:34.006Z,82.56
2018-01-14T05:42:05.536Z,81.71
2018-01-14T05:44:35.060Z,82.25
2018-01-14T05:47:03.660Z,81.68
2018-01-14T05:49:32.547Z,81.03
2018-01-14T05:52:02.256Z,80.93
2018-01-14T05:54:33.314Z,81.23
2018-01-14T05:57:02.248Z,80.91
2018-01-14T05:59:32.076Z,80.80
2018-01-14T06:01:59.836Z,80.98
2018-01-14T06:04:31.188Z,81.16
2018-01-14T06:07:00.084Z,81.26
2018-01-14T06:09:28.231Z,80.45
2018-01-14T06:11:56.218Z,80.49
2018-01-14T06:14:24.093Z,80.03
2018-01-14T06:16:53.569Z,80.42
2018-01-14T06:19:21.826Z,80.51
2018-01-14T06:21:49.561Z,80.31
2018-01-14T06:24:17.430Z,80.91
2018-01-14T06:26:46.921Z,80.73
2018-01-14T06:29:14.772Z,80.23
2018-01-14T06:31:43.148Z,80.71
2018-01-14T06:34:13.568Z,80.85
2018-01-14T06:36:42.185Z,81.01
2018-01-14T06:39:11.776Z,80.89
2018-01-14T06:41:40.325Z,80.95
2018-01-14T06:44:09.584Z,80.63
2018-01-14T06:46:38.323Z,80.64
2018-01-14T06:49:07.822Z,80.86
2018-01-14T06:51:36.169Z,81.16
2018-01-14T06:54:05.970Z,81.88
2018-01-14T06:56:35.694Z,81.50
2018-01-14T06:59:04.375Z,81.22
2018-01-14T07:01:32.436Z,81.86
2018-01-14T07:04:00.247Z,82.06
2018-01-14T07:06:29.981Z,82.16
2018-01-14T07:08:58.655Z,82.36
2018-01-14T07:11:27.343Z,81.55
2018-01-14T07:13:56.748Z,82.15
2018-01-14T07:16:26.574Z,81.94
2018-01-14T07:18:56.287Z,81.76
2018-01-14T07:21:26.635Z,82.12
2018-01-14T07:23:56.739Z,82.66
2018-01-14T07:26:25.982Z,82.59
2018-01-14T07:28:55.802Z,82.31
2018-01-14T07:31:24.330Z,82.42
2018-01-14T07:33:54.505Z,82.81
2018-01-14T07:36:22.639Z,82.90
2018-01-14T07:38:50.420Z,83.12
2018-01-14T07:41:20.258Z,83.11
2018-01-14T07:43:50.608Z,83.33
2018-01-14T07:46:18.340Z,83.19
2018-01-14T07:48:48.219Z,83.01
2018-01-14T07:51:17.324Z,83.22
2018-01-14T07:53:47.575Z,83.09
2018-01-14T07:56:18.008Z,82.99
2018-01-14T07:58:46.936Z,83.28
2018-01-14T08:01:16.530Z,82.70
2018-01-14T08:03:44.847Z,83.61
2018-01-14T08:06:13.156Z,83.16
2018-01-14T08:08:41.653Z,83.59
2018-01-14T08:11:11.199Z,83.14
2018-01-14T08:13:39.980Z,82.87
2018-01-14T08:16:10.724Z,83.53
2018-01-14T08:18:43.300Z,83.56
2018-01-14T08:23:45.176Z,83.43
2018-01-14T08:26:13.041Z,82.94
2018-01-14T08:28:42.516Z,82.62
2018-01-14T08:31:13.183Z,82.97
2018-01-14T08:33:42.045Z,82.25
2018-01-14T08:36:10.339Z,82.71
2018-01-14T08:38:39.327Z,82.55
2018-01-14T08:41:08.589Z,82.76
2018-01-14T08:43:37.563Z,82.31
2018-01-14T08:46:05.976Z,82.93
2018-01-14T08:48:34.522Z,82.77
2018-01-14T08:51:03.160Z,82.41
2018-01-14T08:53:31.790Z,82.65
2018-01-14T08:56:00.276Z,82.24
2018-01-14T08:58:28.036Z,82.01
2018-01-14T09:00:56.199Z,81.82
2018-01-14T09:03:24.782Z,82.31
2018-01-14T09:05:54.301Z,81.78
2018-01-14T09:08:23.033Z,81.81
2018-01-14T09:10:53.595Z,80.94
2018-01-14T09:13:22.088Z,81.20
2018-01-14T09:15:51.015Z,81.99
2018-01-14T09:18:20.340Z,81.00
2018-01-14T09:20:48.873Z,81.63
2018-01-14T09:23:18.432Z,81.01
2018-01-14T09:25:46.933Z,81.24
2018-01-14T09:28:15.265Z,81.29
2018-01-14T09:30:52.251Z,81.15
2018-01-14T09:33:23.290Z,80.62
2018-01-14T09:35:51.158Z,80.49
2018-01-14T09:38:22.335Z,80.54
2018-01-14T09:40:50.705Z,80.98
2018-01-14T09:43:21.347Z,80.01
2018-01-14T09:45:50.615Z,80.77
2018-01-14T09:48:21.043Z,80.95
2018-01-14T09:50:50.273Z,80.57
2018-01-14T09:53:19.388Z,79.80
2018-01-14T09:55:47.937Z,79.85
2018-01-14T09:58:18.429Z,80.06
2018-01-14T10:00:47.237Z,79.93
2018-01-14T10:03:16.874Z,79.59
2018-01-14T10:05:44.833Z,79.62
2018-01-14T10:08:14.643Z,79.85
2018-01-14T10:10:44.197Z,79.94
2018-01-14T10:13:13.839Z,79.13
2018-01-14T10:15:41.918Z,79.07
2018-01-14T10:18:13.895Z,79.37
2018-01-14T10:20:44.027Z,78.92
2018-01-14T10:23:11.786Z,79.42
2018-01-14T10:25:42.046Z,79.10
2018-01-14T10:28:13.118Z,78.88
2018-01-14T10:30:43.059Z,79.64
2018-01-14T10:33:11.608Z,78.86
2018-01-14T10:35:39.998Z,78.85
2018-01-14T10:38:09.787Z,78.68
2018-01-14T10:40:38.272Z,78.78
2018-01-14T10:43:09.236Z,79.43
2018-01-14T10:45:38.541Z,78.97
2018-01-14T10:48:07.420Z,78.50
2018-01-14T10:50:36.875Z,79.65
2018-01-14T10:53:05.495Z,78.74
2018-01-14T10:55:34.103Z,79.43
2018-01-14T10:58:01.827Z,78.58
2018-01-14T11:00:51.361Z,78.45
2018-01-14T11:03:20.263Z,78.89
2018-01-14T11:05:51.005Z,78.83
2018-01-14T11:08:21.258Z,78.70
2018-01-14T11:10:50.753Z,79.00
2018-01-14T11:13:18.959Z,78.69
2018-01-14T11:15:47.357Z,79.46
2018-01-14T11:18:20.808Z,79.02
2018-01-14T11:20:50.807Z,79.57
2018-01-14T11:23:21.313Z,78.85
2018-01-14T11:25:51.284Z,78.87
2018-01-14T11:28:19.953Z,78.49
2018-01-14T11:30:47.591Z,79.84
2018-01-14T11:33:16.901Z,79.54
2018-01-14T11:35:44.840Z,79.56
2018-01-14T11:38:14.864Z,79.00
2018-01-14T11:40:42.847Z,79.40
2018-01-14T11:43:10.779Z,78.91
2018-01-14T11:45:38.783Z,79.72
2018-01-14T11:48:07.492Z,79.62
2018-01-14T11:50:35.366Z,79.21
2018-01-14T11:53:03.856Z,79.08
2018-01-14T11:55:33.298Z,79.37
2018-01-14T11:58:01.507Z,79.34
2018-01-14T12:00:32.424Z,79.28
2018-01-14T12:03:01.159Z,79.74
2018-01-14T12:05:29.771Z,79.32
2018-01-14T12:07:58.564Z,78.93
2018-01-14T12:10:28.343Z,79.86
2018-01-14T12:12:57.312Z,80.03
2018-01-14T12:15:25.736Z,79.72
2018-01-14T12:17:55.524Z,79.21
2018-01-14T12:20:26.386Z,80.06
2018-01-14T12:22:55.927Z,79.71
2018-01-14T12:25:25.444Z,79.63
2018-01-14T12:27:54.280Z,79.25
2018-01-14T12:30:25.251Z,79.54
2018-01-14T12:33:09.164Z,79.63
2018-01-14T12:35:37.862Z,79.08
2018-01-14T12:38:08.297Z,79.38
2018-01-14T12:40:36.388Z,78.83
2018-01-14T12:43:05.528Z,79.24
2018-01-14T12:45:34.505Z,81.03
2018-01-14T12:48:02.403Z,79.54
2018-01-14T12:50:31.246Z,79.84
2018-01-14T12:53:00.955Z,80.86
2018-01-14T12:55:31.668Z,81.05
2018-01-14T12:57:59.978Z,80.01
2018-01-14T13:00:28.612Z,80.39
2018-01-14T13:02:58.327Z,79.51
2018-01-14T13:05:27.017Z,79.95
2018-01-14T13:07:56.646Z,80.75
2018-01-14T13:10:27.786Z,80.38
2018-01-14T13:12:57.920Z,79.79
2018-01-14T13:15:25.728Z,80.25
2018-01-14T13:17:53.802Z,80.49
2018-01-14T13:23:00.755Z,80.51
2018-01-14T13:25:29.604Z,80.80
2018-01-14T13:27:57.495Z,80.77
2018-01-14T13:30:25.916Z,81.32
2018-01-14T13:32:56.632Z,80.77
2018-01-14T13:35:24.855Z,81.26
2018-01-14T13:37:54.440Z,81.07
2018-01-14T13:40:23.007Z,81.28
2018-01-14T13:42:51.565Z,80.60
2018-01-14T13:45:20.718Z,81.02
2018-01-14T13:47:50.644Z,80.39
2018-01-14T13:50:21.006Z,81.03
2018-01-14T13:52:50.206Z,80.87
2018-01-14T13:55:20.451Z,80.08
2018-01-14T13:57:49.919Z,81.06
2018-01-14T14:00:20.727Z,81.14
2018-01-14T14:02:50.261Z,81.38
2018-01-14T14:05:19.927Z,81.24
2018-01-14T14:07:48.028Z,81.21
2018-01-14T14:10:18.422Z,81.45
2018-01-14T14:12:48.450Z,81.33
2018-01-14T14:15:18.770Z,81.42
2018-01-14T14:17:47.321Z,81.79
2018-01-14T14:20:18.801Z,81.64
2018-01-14T14:22:46.585Z,82.25
2018-01-14T14:25:16.764Z,82.02
2018-01-14T14:27:46.167Z,81.98
2018-01-14T14:30:14.747Z,81.34
2018-01-14T14:32:42.548Z,80.61
2018-01-14T14:35:11.463Z,81.56
2018-01-14T14:37:40.876Z,81.50
2018-01-14T14:40:09.498Z,81.89
2018-01-14T14:42:37.246Z,82.14
2018-01-14T14:45:08.195Z,81.98
2018-01-14T14:47:36.352Z,82.60
2018-01-14T14:50:05.540Z,82.23
2018-01-14T14:52:33.755Z,82.75
2018-01-14T14:55:03.783Z,83.34
2018-01-14T14:57:31.926Z,82.25
2018-01-14T15:00:01.703Z,82.40
2018-01-14T15:02:32.379Z,82.60
2018-01-14T15:05:02.751Z,83.10
2018-01-14T15:07:31.122Z,83.09
2018-01-14T15:09:59.318Z,83.15
2018-01-14T15:12:27.149Z,83.14
2018-01-14T15:14:55.290Z,83.17
2018-01-14T15:17:25.095Z,83.47
2018-01-14T15:19:53.373Z,83.63
2018-01-14T15:22:24.592Z,83.40
2018-01-14T15:24:54.264Z,84.33
2018-01-14T15:29:56.600Z,84.44
2018-01-14T15:32:25.823Z,84.55
2018-01-14T15:34:54.240Z,84.80
2018-01-14T15:37:22.691Z,84.63
2018-01-14T15:39:50.815Z,84.86
2018-01-14T15:42:19.640Z,84.69
2018-01-14T15:44:50.160Z,85.42
2018-01-14T15:47:19.905Z,85.20
2018-01-14T15:49:47.765Z,86.25
2018-01-14T15:52:18.261Z,85.69
2018-01-14T15:54:48.972Z,86.09
2018-01-14T15:57:17.936Z,86.28
2018-01-14T15:59:45.867Z,86.46
2018-01-14T16:02:14.085Z,85.76
2018-01-14T16:04:43.875Z,86.18
2018-01-14T16:07:13.347Z,85.98
2018-01-14T16:09:44.217Z,86.37
2018-01-14T16:12:13.928Z,86.65
2018-01-14T16:14:43.392Z,86.76
2018-01-14T16:17:11.231Z,86.48
2018-01-14T16:19:39.245Z,86.42
2018-01-14T16:22:10.302Z,86.35
2018-01-14T16:24:39.199Z,86.45
2018-01-14T16:27:06.993Z,86.65
2018-01-14T16:29:35.328Z,86.67
2018-01-14T16:32:06.612Z,86.92
2018-01-14T16:34:34.432Z,87.04
2018-01-14T16:37:03.731Z,87.07
2018-01-14T16:39:32.599Z,87.01
2018-01-14T16:42:00.753Z,87.23
2018-01-14T16:44:29.185Z,87.34
2018-01-14T16:46:57.723Z,87.33
2018-01-14T16:49:26.640Z,87.34
2018-01-14T16:51:57.698Z,87.35
2018-01-14T16:54:26.633Z,87.83
2018-01-14T16:56:58.903Z,87.43
2018-01-14T16:59:27.116Z,87.56
2018-01-14T17:01:55.323Z,88.02
2018-01-14T17:04:23.696Z,88.40
2018-01-14T17:06:53.408Z,88.13
2018-01-14T17:09:22.248Z,88.45
2018-01-14T17:11:52.441Z,88.84
2018-01-14T17:14:21.542Z,88.90
2018-01-14T17:16:54.145Z,88.65
2018-01-14T17:19:24.162Z,89.10
2018-01-14T17:21:52.056Z,88.98
2018-01-14T17:24:21.499Z,88.46
2018-01-14T17:26:53.465Z,88.61
2018-01-14T17:29:21.909Z,88.27
2018-01-14T17:31:52.358Z,88.75
2018-01-14T17:34:20.799Z,88.88
2018-01-14T17:36:49.863Z,89.19
2018-01-14T17:39:20.073Z,89.06
2018-01-14T17:41:49.624Z,89.14
2018-01-14T17:44:21.594Z,89.14
2018-01-14T17:46:50.657Z,88.96
2018-01-14T17:49:18.440Z,89.29
2018-01-14T17:51:46.520Z,88.98
2018-01-14T17:54:14.875Z,88.78
2018-01-14T17:56:45.819Z,88.89
2018-01-14T17:59:16.698Z,88.80
2018-01-14T18:01:45.385Z,88.80
2018-01-14T18:04:13.420Z,88.52
2018-01-14T18:06:43.360Z,88.60
2018-01-14T18:09:12.347Z,89.04
2018-01-14T18:11:40.975Z,88.96
2018-01-14T18:14:11.185Z,88.86
2018-01-14T18:19:33.601Z,89.11
2018-01-14T18:22:01.528Z,88.68
2018-01-14T18:24:29.204Z,88.72
2018-01-14T18:26:56.876Z,88.81
2018-01-14T18:29:24.818Z,88.92
2018-01-14T18:31:52.621Z,88.98
2018-01-14T18:34:20.308Z,89.11
2018-01-14T18:36:48.074Z,88.95
2018-01-14T18:39:15.739Z,88.79
2018-01-14T18:41:43.661Z,88.87
2018-01-14T18:44:11.383Z,89.10
2018-01-14T18:46:39.309Z,88.84
2018-01-14T18:49:07.000Z,88.64
2018-01-14T18:51:34.688Z,88.39
2018-01-14T18:54:02.370Z,88.37
2018-01-14T18:56:30.098Z,88.37
2018-01-14T18:58:57.959Z,88.23
2018-01-14T19:01:25.706Z,88.39
2018-01-14T19:03:53.387Z,88.65
2018-01-14T19:06:21.125Z,88.34
2018-01-14T19:08:48.837Z,88.45
2018-01-14T19:11:16.558Z,88.75
2018-01-14T19:13:45.230Z,88.65
2018-01-14T19:16:12.962Z,88.56
2018-01-14T19:18:40.762Z,88.53
2018-01-14T19:21:08.627Z,88.77
2018-01-14T19:23:36.321Z,88.66
2018-01-14T19:26:04.004Z,88.57
2018-01-14T19:28:31.694Z,88.74
2018-01-14T19:30:59.415Z,88.83
2018-01-14T19:33:27.141Z,88.98
2018-01-14T19:35:54.819Z,89.14
2018-01-14T19:38:22.556Z,88.95
2018-01-14T19:40:50.239Z,88.92
2018-01-14T19:43:17.942Z,88.91
2018-01-14T19:45:45.612Z,88.94
2018-01-14T19:48:13.431Z,88.89
2018-01-14T19:50:41.228Z,89.05
2018-01-14T19:53:08.959Z,89.10
2018-01-14T19:55:36.702Z,89.21
2018-01-14T19:58:04.435Z,89.49
2018-01-14T20:00:32.211Z,89.36
2018-01-14T20:02:59.915Z,89.47
2018-01-14T20:05:27.611Z,89.32
2018-01-14T20:07:55.352Z,89.52
2018-01-14T20:10:23.051Z,89.58
2018-01-14T20:12:50.928Z,89.61
2018-01-14T20:15:18.597Z,89.50
2018-01-14T20:17:46.315Z,89.44
2018-01-14T20:20:13.957Z,89.72
2018-01-14T20:22:41.704Z,89.94
2018-01-14T20:25:09.387Z,89.73
2018-01-14T20:27:37.068Z,89.74
2018-01-14T20:30:04.772Z,89.84
2018-01-14T20:32:32.502Z,90.06
2018-01-14T20:35:00.189Z,90.03
2018-01-14T20:37:27.950Z,90.20
2018-01-14T20:39:55.814Z,90.05
2018-01-14T20:42:23.600Z,89.91
2018-01-14T20:44:55.024Z,89.92
2018-01-14T20:47:22.799Z,90.08
2018-01-14T20:49:50.628Z,89.95
2018-01-14T20:52:19.126Z,90.17
2018-01-14T20:54:46.807Z,90.13
2018-01-14T20:57:14.543Z,90.25
2018-01-14T20:59:42.217Z,90.24
2018-01-14T21:02:09.951Z,90.27
2018-01-14T21:04:37.631Z,90.00
2018-01-14T21:07:05.348Z,90.14
2018-01-14T21:09:33.027Z,90.23
2018-01-14T21:12:00.935Z,90.21
2018-01-14T21:14:28.626Z,90.49
2018-01-14T21:16:56.312Z,90.64
2018-01-14T21:19:24.061Z,90.94
2018-01-14T21:21:51.703Z,90.95
2018-01-14T21:24:19.379Z,90.95
2018-01-14T21:26:47.198Z,91.00
2018-01-14T21:29:14.910Z,91.22
2018-01-14T21:31:43.433Z,91.14
2018-01-14T21:34:11.152Z,91.07
2018-01-14T21:36:38.854Z,90.94
2018-01-14T21:39:06.591Z,90.99
2018-01-14T21:41:34.328Z,91.19
2018-01-14T21:44:02.024Z,91.17
2018-01-14T21:46:29.741Z,91.32
2018-01-14T21:48:57.492Z,91.24
2018-01-14T21:51:25.245Z,91.55
2018-01-14T21:53:53.152Z,91.71
2018-01-14T21:56:20.908Z,91.82
2018-01-14T21:58:48.596Z,91.81
2018-01-14T22:01:16.801Z,91.85
2018-01-14T22:03:44.481Z,91.82
2018-01-14T22:06:12.234Z,91.60
2018-01-14T22:08:39.993Z,91.59
2018-01-14T22:11:07.750Z,91.72
2018-01-14T22:13:35.438Z,91.87
2018-01-14T22:16:03.136Z,91.97
2018-01-14T22:18:30.853Z,91.96
2018-01-14T22:20:58.539Z,91.85
2018-01-14T22:23:26.345Z,91.94
2018-01-14T22:25:53.997Z,91.90
2018-01-14T22:28:21.791Z,91.92
2018-01-14T22:30:49.626Z,92.13
2018-01-14T22:33:17.296Z,92.28
2018-01-14T22:35:44.937Z,92.43
2018-01-14T22:38:12.632Z,92.47
2018-01-14T22:40:40.409Z,92.60
2018-01-14T22:43:08.201Z,92.56
2018-01-14T22:45:35.892Z,92.51
2018-01-14T22:48:03.569Z,92.70
2018-01-14T22:50:31.197Z,92.66
2018-01-14T22:52:58.931Z,92.85
2018-01-14T22:55:26.560Z,92.91
2018-01-14T22:57:55.705Z,93.05
2018-01-14T23:00:26.333Z,93.14
2018-01-14T23:02:54.211Z,93.21
2018-01-14T23:05:21.892Z,93.41
2018-01-14T23:07:49.689Z,93.44
2018-01-14T23:10:17.405Z,93.52
2018-01-14T23:12:45.156Z,93.70
2018-01-14T23:15:12.828Z,93.76
2018-01-14T23:17:40.470Z,93.74
2018-01-14T23:20:08.191Z,93.71
2018-01-14T23:22:36.018Z,93.66
2018-01-14T23:25:03.869Z,93.73
2018-01-14T23:27:32.078Z,93.66
2018-01-14T23:29:59.908Z,93.66
2018-01-14T23:32:27.632Z,93.77
2018-01-14T23:34:55.482Z,93.81
2018-01-14T23:37:23.257Z,93.84
2018-01-14T23:39:50.928Z,93.88
2018-01-14T23:42:18.547Z,93.81
2018-01-14T23:44:46.335Z,93.77
2018-01-14T23:47:14.044Z,93.74
2018-01-14T23:49:41.912Z,93.82
2018-01-14T23:52:09.611Z,93.81
2018-01-14T23:54:37.468Z,93.94
2018-01-14T23:57:05.182Z,93.97
2018-01-14T23:59:33.031Z,93.94
